Pagina principale
METAR-TAF:

METAR-TAF

Aeroporti :

Aeroporto di Amendola

Foggia, Italia

latitudine: 41-32N, longitudine: 015-43E, altezza: 57 m

Osservazione

Il bollettino è stato emesso 34 minuti fa, alle 19:55 UTC
Vento 1 kt da direzioni variabili
Temperature 22°C
Umidità 100%
Pressione 1017 hPa
Visibilità 10 km o più
nessuna nube inferiore a 1500 m e nessun cumulonembo

METAR: LIBA 161955Z VRB01KT CAVOK 22/22 Q1017 RMK SCT SCT200 VIS MIN 9999 WIND THR11 VRB01KT WIND THR29 /////KT BLU

Ora: 22:29 (20:29 UTC)

Previsione

Il bollettino è stato emesso 3 ore e 29 minuti fa, alle 17:00 UTC
Previsione valida dal 16 alle 18 UTC al 17 alle 03 UTC
Vento 8 kt da est
Visibilità 10 km o più
nessuna nube inferiore a 1500 m e nessun cumulonembo

TAF: LIBA 161700Z 1618/1703 10008KT CAVOK

Osservazioni e previsioni meteorologiche di più di 4000 aeroporti (messaggi METAR e TAF).

Le stazioni disponibili sono rappresentate dai dischi gialli e rossi sulla carta.

Puntare il mouse per vedere il nome della stazione.

Clicca sopra per visualizzare le osservazioni e previsioni meteorologiche.

Per cambiare la mappa : fare clic sui pulsanti verdi con una croce nera per ingrandire, il pulsante verde con un trattino per diminuire, o sulla freccia verde per le mappe adiacenti.


METAR-TAF: